Aérodrome :
LOGIN :

S'inscrire | Disclaimer

   EN    FR    IT 

 










Légende :    VFR   VFR Marginal   IFR   IFR Intensif   IFR Très Intensif
Visi : 
Plafond : 
>= 8 km
>= 3000ft
5 à 8 km
1000 à 3000 ft
1500m à 5 km
500 à 1000 ft
800 à 1500m
200 à 500 ft
< 800m
< 200 ft
Symboles :   Orages  Brouillard  Fortes neiges  Fortes précipitations  Vent > 20 kt
SIGMETs :   Divers  Orages  Givrage  Turbulence  Onde Orograph.  Cendres Volcan.






- Altitude de l'aérodrome : 375 ft
- Code IATA : MST


EHBK - Maastricht Aachen

DERNIER METAR :
  • 150825Z AUTO 23016KT 200V260 9999 FEW021 BKN025 BKN029 07/04 Q0999 NOSIG

METARs EXPIRÉS :
  • 150755Z AUTO 23016G26KT 9999 FEW025 SCT028 07/05 Q0998 NOSIG
  • 150725Z AUTO 23015KT 9999 FEW017 08/06 Q0997 NOSIG
  • 150655Z AUTO 23014KT 9999 NSC 07/06 Q0996 NOSIG
  • 150625Z AUTO 25012KT 200V310 9999 FEW015CB OVC036 07/06 Q0995 BECMG NSW
  • 150555Z AUTO 27018G33KT 230V330 2400 -SHUP FEW000 BKN015CB BKN027 07/06 Q0995 RERA TEMPO 24025G38KT 4000 SHRA

TAF TAF EHBK
Valide du 15 à 06h jusqu'au 16 à 12h UTC


150510Z 1506/1612 24020G34KT 9999 BKN025
TEMPO 1506/1508 24025G38KT 4000 SHRA RA SCT012CB BKN015
PROB30
TEMPO 1506/1508 24032G42KT 2500 TSRAGS BKN012CB BKN015
BECMG 1508/1511 24015G27KT
BECMG 1511/1514 21013KT
BECMG 1600/1603 18008KT
TEMPO 1608/1612 6000 -RA



MET'MAP, la Météo Aéronautique d'un coup d'oeil ! - Copyright ORBIFLY Décembre 2007 - Disclaimer

ORBIFLY MET'MAP TEAM :

Programmation & Développement : Alexandra Zaïnal
Sur une idée originale de : Baudouin d'Aumeries
Assistance à la programmation : Marc-Olivier Méhu
Soutien technique & logistique : Manuel Goepfert

Contact : metmap@orbifly.com




SOURCES & CREDITS :

   NOAA